Portada
METAR-TAF:

METAR-TAF

Aeroports :

Aeroport de Badajoz

Badajoz, Espanya

latitud: 38-53N, longitud: 006-49W, altitud: 185 m

Observació

L'informe es va fer fa 51 minuts, a les 19:00 UTC
Vent 3 kt del Nord-Oest, variant entre Oest i Nord/Nord-Oest
Temperatura 30°C
Humitat 31%
Pressió 1018 hPa
Visibilitat 10 km o més
sense núvols per sota de 1500 mi sense presència de cumulonimbus.

METAR: LEBZ 211900Z 32003KT 270V330 CAVOK 30/11 Q1018

Hora: 21:51 (19:51 UTC)

Pronòstic

L'informe es va fer fa 2 hores i 51 minuts, a les 17:00 UTC
Pronòstic vàlid del 21 a les 18 UTC al 22 a les 18 UTC
Vent 4 kt del Oest
Visibilitat 10 km o més
sense núvols per sota de 1500 mi sense presència de cumulonimbus.

TAF: LEBZ 211700Z 2118/2218 28004KT CAVOK TX37/2215Z TN18/2206Z

Observacions i pronòstics meteorològics de més de 4000 aeroports (METAR i TAF).

Les estacions disponibles són els punts grocs i vermells al mapa.

Posi el ratolí al punt desitjat per veure el nom de l'estació.

Feu clic per veure les observacions i els pronòstics meteorològics.

Per canviar el mapa: feu clic els botons verds amb una creu de color negre per apropar; al botó verd amb un guió per allunyar la imatge; o en les fletxes verdes per a mapes adjacents.


METAR-TAF: